sensor_id;sensor_type;location;lat;lon;timestamp;P1;durP1;ratioP1;P2;durP2;ratioP2
62037;SDS011;47991;42.974;12.082;2024-02-23T00:02:20;8.90;;;3.40;;
62037;SDS011;47991;42.974;12.082;2024-02-23T00:04:47;7.80;;;3.20;;
62037;SDS011;47991;42.974;12.082;2024-02-23T00:07:14;8.20;;;2.70;;
62037;SDS011;47991;42.974;12.082;2024-02-23T00:09:43;13.40;;;3.50;;
62037;SDS011;47991;42.974;12.082;2024-02-23T00:12:10;8.60;;;3.70;;
62037;SDS011;47991;42.974;12.082;2024-02-23T00:14:37;7.80;;;2.80;;
62037;SDS011;47991;42.974;12.082;2024-02-23T00:17:04;11.60;;;3.30;;
62037;SDS011;47991;42.974;12.082;2024-02-23T00:19:31;9.70;;;3.70;;
62037;SDS011;47991;42.974;12.082;2024-02-23T00:21:58;13.40;;;3.70;;
62037;SDS011;47991;42.974;12.082;2024-02-23T00:24:28;12.30;;;2.80;;
62037;SDS011;47991;42.974;12.082;2024-02-23T00:26:55;7.20;;;2.70;;
62037;SDS011;47991;42.974;12.082;2024-02-23T00:29:22;10.30;;;2.80;;
62037;SDS011;47991;42.974;12.082;2024-02-23T00:31:50;11.00;;;3.10;;
62037;SDS011;47991;42.974;12.082;2024-02-23T00:34:17;8.70;;;2.90;;
62037;SDS011;47991;42.974;12.082;2024-02-23T00:36:44;9.50;;;3.00;;
62037;SDS011;47991;42.974;12.082;2024-02-23T00:39:11;6.90;;;2.80;;
62037;SDS011;47991;42.974;12.082;2024-02-23T00:41:38;10.70;;;3.00;;
62037;SDS011;47991;42.974;12.082;2024-02-23T00:44:05;6.00;;;2.60;;
62037;SDS011;47991;42.974;12.082;2024-02-23T00:53:46;7.50;;;2.70;;
62037;SDS011;47991;42.974;12.082;2024-02-23T00:56:13;7.40;;;2.40;;
62037;SDS011;47991;42.974;12.082;2024-02-23T00:58:40;11.10;;;3.30;;
62037;SDS011;47991;42.974;12.082;2024-02-23T01:01:07;8.50;;;2.90;;
62037;SDS011;47991;42.974;12.082;2024-02-23T01:03:34;10.30;;;2.90;;
62037;SDS011;47991;42.974;12.082;2024-02-23T01:06:01;11.10;;;3.10;;
62037;SDS011;47991;42.974;12.082;2024-02-23T01:08:28;8.30;;;2.50;;
62037;SDS011;47991;42.974;12.082;2024-02-23T01:10:55;7.40;;;2.40;;
62037;SDS011;47991;42.974;12.082;2024-02-23T01:13:22;6.70;;;2.70;;
62037;SDS011;47991;42.974;12.082;2024-02-23T01:15:49;6.80;;;2.50;;
62037;SDS011;47991;42.974;12.082;2024-02-23T01:18:16;8.10;;;2.90;;
62037;SDS011;47991;42.974;12.082;2024-02-23T01:20:43;6.70;;;2.30;;
62037;SDS011;47991;42.974;12.082;2024-02-23T01:23:10;8.00;;;2.30;;
62037;SDS011;47991;42.974;12.082;2024-02-23T01:25:37;8.30;;;2.60;;
62037;SDS011;47991;42.974;12.082;2024-02-23T01:28:05;6.30;;;2.50;;
62037;SDS011;47991;42.974;12.082;2024-02-23T01:30:32;5.60;;;2.40;;
62037;SDS011;47991;42.974;12.082;2024-02-23T01:32:59;7.40;;;2.40;;
62037;SDS011;47991;42.974;12.082;2024-02-23T01:35:27;8.90;;;2.40;;
62037;SDS011;47991;42.974;12.082;2024-02-23T01:37:55;7.80;;;3.00;;
62037;SDS011;47991;42.974;12.082;2024-02-23T01:40:22;6.40;;;2.40;;
62037;SDS011;47991;42.974;12.082;2024-02-23T01:42:49;6.50;;;2.40;;
62037;SDS011;47991;42.974;12.082;2024-02-23T01:45:15;7.90;;;2.60;;
62037;SDS011;47991;42.974;12.082;2024-02-23T01:47:42;6.20;;;2.50;;
62037;SDS011;47991;42.974;12.082;2024-02-23T01:50:10;5.30;;;2.20;;
62037;SDS011;47991;42.974;12.082;2024-02-23T01:52:39;7.50;;;2.90;;
62037;SDS011;47991;42.974;12.082;2024-02-23T01:55:06;7.10;;;2.60;;
62037;SDS011;47991;42.974;12.082;2024-02-23T01:57:34;9.20;;;2.70;;
62037;SDS011;47991;42.974;12.082;2024-02-23T02:00:01;8.60;;;2.70;;
62037;SDS011;47991;42.974;12.082;2024-02-23T02:02:29;6.60;;;2.70;;
62037;SDS011;47991;42.974;12.082;2024-02-23T02:04:56;6.40;;;2.50;;
62037;SDS011;47991;42.974;12.082;2024-02-23T02:07:23;6.90;;;2.70;;
62037;SDS011;47991;42.974;12.082;2024-02-23T02:09:52;5.30;;;2.50;;
62037;SDS011;47991;42.974;12.082;2024-02-23T02:12:28;6.60;;;2.50;;
62037;SDS011;47991;42.974;12.082;2024-02-23T02:14:55;4.10;;;2.10;;
62037;SDS011;47991;42.974;12.082;2024-02-23T02:17:22;8.90;;;2.50;;
62037;SDS011;47991;42.974;12.082;2024-02-23T02:19:49;7.20;;;2.80;;
62037;SDS011;47991;42.974;12.082;2024-02-23T02:22:16;5.60;;;2.30;;
62037;SDS011;47991;42.974;12.082;2024-02-23T02:24:43;6.30;;;2.60;;
62037;SDS011;47991;42.974;12.082;2024-02-23T02:27:12;10.20;;;3.20;;
62037;SDS011;47991;42.974;12.082;2024-02-23T02:29:39;7.20;;;2.30;;
62037;SDS011;47991;42.974;12.082;2024-02-23T02:32:07;7.30;;;2.20;;
62037;SDS011;47991;42.974;12.082;2024-02-23T02:34:34;6.70;;;2.00;;
62037;SDS011;47991;42.974;12.082;2024-02-23T02:37:00;7.30;;;2.30;;
62037;SDS011;47991;42.974;12.082;2024-02-23T02:39:28;7.10;;;2.50;;
62037;SDS011;47991;42.974;12.082;2024-02-23T02:41:55;7.00;;;2.40;;
62037;SDS011;47991;42.974;12.082;2024-02-23T02:44:22;5.70;;;2.10;;
62037;SDS011;47991;42.974;12.082;2024-02-23T02:46:49;8.40;;;2.20;;
62037;SDS011;47991;42.974;12.082;2024-02-23T02:49:16;4.00;;;1.80;;
62037;SDS011;47991;42.974;12.082;2024-02-23T02:51:43;4.60;;;1.90;;
62037;SDS011;47991;42.974;12.082;2024-02-23T02:54:11;7.20;;;2.20;;
62037;SDS011;47991;42.974;12.082;2024-02-23T02:56:42;6.50;;;2.60;;
62037;SDS011;47991;42.974;12.082;2024-02-23T02:59:10;8.60;;;2.60;;
62037;SDS011;47991;42.974;12.082;2024-02-23T03:01:37;8.20;;;2.20;;
62037;SDS011;47991;42.974;12.082;2024-02-23T03:04:04;9.60;;;3.20;;
62037;SDS011;47991;42.974;12.082;2024-02-23T03:06:31;6.30;;;2.50;;
62037;SDS011;47991;42.974;12.082;2024-02-23T03:08:58;9.60;;;2.60;;
62037;SDS011;47991;42.974;12.082;2024-02-23T03:11:26;5.80;;;2.30;;
62037;SDS011;47991;42.974;12.082;2024-02-23T03:13:53;9.00;;;2.50;;
62037;SDS011;47991;42.974;12.082;2024-02-23T03:16:20;7.70;;;2.50;;
62037;SDS011;47991;42.974;12.082;2024-02-23T03:18:52;6.60;;;2.40;;
62037;SDS011;47991;42.974;12.082;2024-02-23T03:21:20;6.00;;;2.40;;
62037;SDS011;47991;42.974;12.082;2024-02-23T03:23:47;9.30;;;2.80;;
62037;SDS011;47991;42.974;12.082;2024-02-23T03:26:14;6.30;;;2.70;;
62037;SDS011;47991;42.974;12.082;2024-02-23T03:28:43;10.20;;;2.40;;
62037;SDS011;47991;42.974;12.082;2024-02-23T03:31:10;7.30;;;2.80;;
62037;SDS011;47991;42.974;12.082;2024-02-23T03:33:37;6.60;;;2.40;;
62037;SDS011;47991;42.974;12.082;2024-02-23T03:36:04;7.70;;;2.70;;
62037;SDS011;47991;42.974;12.082;2024-02-23T03:38:31;8.00;;;2.90;;
62037;SDS011;47991;42.974;12.082;2024-02-23T03:41:00;10.10;;;3.20;;
62037;SDS011;47991;42.974;12.082;2024-02-23T03:43:28;9.10;;;2.90;;
62037;SDS011;47991;42.974;12.082;2024-02-23T03:45:55;5.70;;;2.20;;
62037;SDS011;47991;42.974;12.082;2024-02-23T03:48:21;7.70;;;2.70;;
62037;SDS011;47991;42.974;12.082;2024-02-23T03:50:48;9.10;;;2.80;;
62037;SDS011;47991;42.974;12.082;2024-02-23T03:53:15;8.10;;;3.00;;
62037;SDS011;47991;42.974;12.082;2024-02-23T03:55:43;9.30;;;3.50;;
62037;SDS011;47991;42.974;12.082;2024-02-23T03:58:10;8.90;;;2.80;;
62037;SDS011;47991;42.974;12.082;2024-02-23T04:00:37;10.20;;;3.20;;
62037;SDS011;47991;42.974;12.082;2024-02-23T04:03:04;8.80;;;3.20;;
62037;SDS011;47991;42.974;12.082;2024-02-23T04:05:31;6.90;;;3.10;;
62037;SDS011;47991;42.974;12.082;2024-02-23T04:07:58;6.20;;;2.70;;
62037;SDS011;47991;42.974;12.082;2024-02-23T04:10:25;9.70;;;3.20;;
62037;SDS011;47991;42.974;12.082;2024-02-23T04:12:52;10.00;;;2.50;;
62037;SDS011;47991;42.974;12.082;2024-02-23T04:15:19;11.70;;;4.00;;
62037;SDS011;47991;42.974;12.082;2024-02-23T04:17:46;11.70;;;4.40;;
62037;SDS011;47991;42.974;12.082;2024-02-23T04:20:13;9.30;;;3.90;;
62037;SDS011;47991;42.974;12.082;2024-02-23T04:22:40;10.40;;;3.80;;
62037;SDS011;47991;42.974;12.082;2024-02-23T04:25:08;8.60;;;3.80;;
62037;SDS011;47991;42.974;12.082;2024-02-23T04:27:35;9.30;;;4.10;;
62037;SDS011;47991;42.974;12.082;2024-02-23T04:30:04;9.60;;;4.20;;
62037;SDS011;47991;42.974;12.082;2024-02-23T04:32:32;8.70;;;3.60;;
62037;SDS011;47991;42.974;12.082;2024-02-23T04:34:59;11.50;;;4.40;;
62037;SDS011;47991;42.974;12.082;2024-02-23T04:37:25;8.90;;;4.00;;
62037;SDS011;47991;42.974;12.082;2024-02-23T04:39:52;10.50;;;3.40;;
62037;SDS011;47991;42.974;12.082;2024-02-23T04:42:19;8.80;;;3.90;;
62037;SDS011;47991;42.974;12.082;2024-02-23T04:44:47;9.60;;;4.60;;
62037;SDS011;47991;42.974;12.082;2024-02-23T04:47:15;8.70;;;3.80;;
62037;SDS011;47991;42.974;12.082;2024-02-23T04:49:42;12.50;;;4.90;;
62037;SDS011;47991;42.974;12.082;2024-02-23T04:52:09;11.60;;;4.00;;
62037;SDS011;47991;42.974;12.082;2024-02-23T04:54:36;8.80;;;3.90;;
62037;SDS011;47991;42.974;12.082;2024-02-23T04:57:03;13.90;;;5.10;;
62037;SDS011;47991;42.974;12.082;2024-02-23T04:59:30;12.80;;;4.90;;
62037;SDS011;47991;42.974;12.082;2024-02-23T05:01:58;10.60;;;4.80;;
62037;SDS011;47991;42.974;12.082;2024-02-23T05:04:25;10.90;;;4.60;;
62037;SDS011;47991;42.974;12.082;2024-02-23T05:06:53;7.40;;;3.70;;
62037;SDS011;47991;42.974;12.082;2024-02-23T05:09:20;10.50;;;4.90;;
62037;SDS011;47991;42.974;12.082;2024-02-23T05:11:47;12.50;;;5.60;;
62037;SDS011;47991;42.974;12.082;2024-02-23T05:14:14;11.00;;;4.90;;
62037;SDS011;47991;42.974;12.082;2024-02-23T05:16:41;8.40;;;3.90;;
62037;SDS011;47991;42.974;12.082;2024-02-23T05:19:08;15.40;;;5.10;;
62037;SDS011;47991;42.974;12.082;2024-02-23T05:21:35;12.10;;;5.00;;
62037;SDS011;47991;42.974;12.082;2024-02-23T05:24:01;8.40;;;4.20;;
62037;SDS011;47991;42.974;12.082;2024-02-23T05:26:29;10.90;;;4.90;;
62037;SDS011;47991;42.974;12.082;2024-02-23T05:28:56;12.70;;;4.90;;
62037;SDS011;47991;42.974;12.082;2024-02-23T05:31:42;10.70;;;5.00;;
62037;SDS011;47991;42.974;12.082;2024-02-23T05:34:15;9.50;;;4.80;;
62037;SDS011;47991;42.974;12.082;2024-02-23T05:36:42;13.00;;;5.50;;
62037;SDS011;47991;42.974;12.082;2024-02-23T05:39:09;16.00;;;6.00;;
62037;SDS011;47991;42.974;12.082;2024-02-23T05:41:49;14.60;;;6.20;;
62037;SDS011;47991;42.974;12.082;2024-02-23T05:44:16;9.30;;;4.10;;
62037;SDS011;47991;42.974;12.082;2024-02-23T05:46:43;13.70;;;5.20;;
62037;SDS011;47991;42.974;12.082;2024-02-23T05:49:10;11.40;;;4.90;;
62037;SDS011;47991;42.974;12.082;2024-02-23T05:51:38;12.30;;;5.50;;
62037;SDS011;47991;42.974;12.082;2024-02-23T05:54:05;12.10;;;5.10;;
62037;SDS011;47991;42.974;12.082;2024-02-23T05:56:32;11.30;;;4.90;;
62037;SDS011;47991;42.974;12.082;2024-02-23T05:58:59;11.30;;;4.50;;
62037;SDS011;47991;42.974;12.082;2024-02-23T06:01:25;9.10;;;4.50;;
62037;SDS011;47991;42.974;12.082;2024-02-23T06:03:52;13.30;;;5.70;;
62037;SDS011;47991;42.974;12.082;2024-02-23T06:06:21;12.60;;;4.80;;
62037;SDS011;47991;42.974;12.082;2024-02-23T06:08:48;10.60;;;5.30;;
62037;SDS011;47991;42.974;12.082;2024-02-23T06:11:16;11.30;;;5.70;;
62037;SDS011;47991;42.974;12.082;2024-02-23T06:13:45;10.10;;;4.90;;
62037;SDS011;47991;42.974;12.082;2024-02-23T06:16:12;9.70;;;4.50;;
62037;SDS011;47991;42.974;12.082;2024-02-23T06:18:39;11.60;;;5.00;;
62037;SDS011;47991;42.974;12.082;2024-02-23T06:21:14;14.20;;;5.50;;
62037;SDS011;47991;42.974;12.082;2024-02-23T06:23:41;9.40;;;5.30;;
62037;SDS011;47991;42.974;12.082;2024-02-23T06:26:09;8.50;;;4.40;;
62037;SDS011;47991;42.974;12.082;2024-02-23T06:28:37;11.20;;;5.10;;
62037;SDS011;47991;42.974;12.082;2024-02-23T06:31:15;10.60;;;5.10;;
62037;SDS011;47991;42.974;12.082;2024-02-23T06:33:42;9.40;;;4.40;;
62037;SDS011;47991;42.974;12.082;2024-02-23T06:36:09;10.10;;;4.70;;
62037;SDS011;47991;42.974;12.082;2024-02-23T06:38:36;11.70;;;5.30;;
62037;SDS011;47991;42.974;12.082;2024-02-23T06:41:03;12.60;;;5.20;;
62037;SDS011;47991;42.974;12.082;2024-02-23T06:43:30;9.80;;;5.00;;
62037;SDS011;47991;42.974;12.082;2024-02-23T06:45:57;11.00;;;5.20;;
62037;SDS011;47991;42.974;12.082;2024-02-23T06:48:24;8.80;;;3.70;;
62037;SDS011;47991;42.974;12.082;2024-02-23T06:50:52;13.00;;;5.80;;
62037;SDS011;47991;42.974;12.082;2024-02-23T06:53:19;10.80;;;4.40;;
62037;SDS011;47991;42.974;12.082;2024-02-23T06:55:46;8.50;;;4.60;;
62037;SDS011;47991;42.974;12.082;2024-02-23T06:58:13;10.60;;;5.50;;
62037;SDS011;47991;42.974;12.082;2024-02-23T07:00:41;12.40;;;5.50;;
62037;SDS011;47991;42.974;12.082;2024-02-23T07:03:08;10.60;;;6.00;;
62037;SDS011;47991;42.974;12.082;2024-02-23T07:05:35;10.70;;;5.40;;
62037;SDS011;47991;42.974;12.082;2024-02-23T07:08:02;10.20;;;5.00;;
62037;SDS011;47991;42.974;12.082;2024-02-23T07:10:29;14.80;;;4.90;;
62037;SDS011;47991;42.974;12.082;2024-02-23T07:12:56;11.90;;;6.20;;
62037;SDS011;47991;42.974;12.082;2024-02-23T07:15:24;11.90;;;5.60;;
62037;SDS011;47991;42.974;12.082;2024-02-23T07:17:52;13.70;;;6.70;;
62037;SDS011;47991;42.974;12.082;2024-02-23T07:20:19;16.40;;;5.60;;
62037;SDS011;47991;42.974;12.082;2024-02-23T07:22:46;12.20;;;5.60;;
62037;SDS011;47991;42.974;12.082;2024-02-23T07:25:17;13.10;;;5.60;;
62037;SDS011;47991;42.974;12.082;2024-02-23T07:27:46;10.40;;;5.20;;
62037;SDS011;47991;42.974;12.082;2024-02-23T07:32:44;14.20;;;5.90;;
62037;SDS011;47991;42.974;12.082;2024-02-23T07:35:11;12.70;;;6.20;;
62037;SDS011;47991;42.974;12.082;2024-02-23T07:37:38;19.10;;;8.00;;
62037;SDS011;47991;42.974;12.082;2024-02-23T07:40:05;13.90;;;7.10;;
62037;SDS011;47991;42.974;12.082;2024-02-23T07:42:33;13.40;;;5.20;;
62037;SDS011;47991;42.974;12.082;2024-02-23T07:45:05;15.70;;;6.40;;
62037;SDS011;47991;42.974;12.082;2024-02-23T07:47:33;10.40;;;5.00;;
62037;SDS011;47991;42.974;12.082;2024-02-23T07:50:01;14.00;;;6.00;;
62037;SDS011;47991;42.974;12.082;2024-02-23T07:52:28;13.40;;;6.60;;
62037;SDS011;47991;42.974;12.082;2024-02-23T07:54:55;18.80;;;6.50;;
62037;SDS011;47991;42.974;12.082;2024-02-23T07:57:22;13.50;;;6.10;;
62037;SDS011;47991;42.974;12.082;2024-02-23T07:59:49;12.20;;;6.30;;
62037;SDS011;47991;42.974;12.082;2024-02-23T08:02:16;14.10;;;5.70;;
62037;SDS011;47991;42.974;12.082;2024-02-23T08:04:42;12.00;;;5.90;;
62037;SDS011;47991;42.974;12.082;2024-02-23T08:07:10;11.60;;;5.60;;
62037;SDS011;47991;42.974;12.082;2024-02-23T08:09:37;15.70;;;6.00;;
62037;SDS011;47991;42.974;12.082;2024-02-23T08:12:04;14.60;;;6.10;;
62037;SDS011;47991;42.974;12.082;2024-02-23T08:14:31;15.10;;;5.40;;
62037;SDS011;47991;42.974;12.082;2024-02-23T08:16:59;13.20;;;5.40;;
62037;SDS011;47991;42.974;12.082;2024-02-23T08:19:26;15.00;;;6.30;;
62037;SDS011;47991;42.974;12.082;2024-02-23T08:21:53;13.60;;;6.00;;
62037;SDS011;47991;42.974;12.082;2024-02-23T08:24:20;13.60;;;5.20;;
62037;SDS011;47991;42.974;12.082;2024-02-23T08:26:46;14.00;;;5.50;;
62037;SDS011;47991;42.974;12.082;2024-02-23T08:29:14;15.50;;;5.50;;
62037;SDS011;47991;42.974;12.082;2024-02-23T08:31:41;11.60;;;5.40;;
62037;SDS011;47991;42.974;12.082;2024-02-23T08:34:08;13.50;;;4.70;;
62037;SDS011;47991;42.974;12.082;2024-02-23T08:36:35;11.90;;;5.40;;
62037;SDS011;47991;42.974;12.082;2024-02-23T08:39:02;10.50;;;4.70;;
62037;SDS011;47991;42.974;12.082;2024-02-23T08:41:29;14.80;;;6.30;;
62037;SDS011;47991;42.974;12.082;2024-02-23T08:43:56;16.30;;;6.40;;
62037;SDS011;47991;42.974;12.082;2024-02-23T08:46:23;13.50;;;4.80;;
62037;SDS011;47991;42.974;12.082;2024-02-23T08:48:50;13.50;;;5.00;;
62037;SDS011;47991;42.974;12.082;2024-02-23T08:51:17;19.40;;;6.30;;
62037;SDS011;47991;42.974;12.082;2024-02-23T08:53:44;16.80;;;5.40;;
62037;SDS011;47991;42.974;12.082;2024-02-23T08:56:11;16.70;;;5.60;;
62037;SDS011;47991;42.974;12.082;2024-02-23T08:58:38;17.30;;;6.50;;
62037;SDS011;47991;42.974;12.082;2024-02-23T09:01:05;18.20;;;5.70;;
62037;SDS011;47991;42.974;12.082;2024-02-23T09:03:32;19.20;;;5.10;;
62037;SDS011;47991;42.974;12.082;2024-02-23T09:05:59;17.60;;;6.20;;
62037;SDS011;47991;42.974;12.082;2024-02-23T09:08:26;18.80;;;8.40;;
62037;SDS011;47991;42.974;12.082;2024-02-23T09:10:53;14.00;;;6.50;;
62037;SDS011;47991;42.974;12.082;2024-02-23T09:13:20;18.00;;;6.00;;
62037;SDS011;47991;42.974;12.082;2024-02-23T09:15:49;17.10;;;6.50;;
62037;SDS011;47991;42.974;12.082;2024-02-23T09:18:16;16.20;;;5.80;;
62037;SDS011;47991;42.974;12.082;2024-02-23T09:20:43;13.30;;;5.70;;
62037;SDS011;47991;42.974;12.082;2024-02-23T09:23:10;16.10;;;6.60;;
62037;SDS011;47991;42.974;12.082;2024-02-23T09:25:38;13.80;;;5.60;;
62037;SDS011;47991;42.974;12.082;2024-02-23T09:28:06;16.30;;;6.20;;
62037;SDS011;47991;42.974;12.082;2024-02-23T09:30:33;20.30;;;6.20;;
62037;SDS011;47991;42.974;12.082;2024-02-23T09:32:59;13.80;;;6.30;;
62037;SDS011;47991;42.974;12.082;2024-02-23T09:35:26;11.80;;;5.40;;
62037;SDS011;47991;42.974;12.082;2024-02-23T09:37:53;14.40;;;6.10;;
62037;SDS011;47991;42.974;12.082;2024-02-23T09:40:20;17.30;;;6.20;;
62037;SDS011;47991;42.974;12.082;2024-02-23T09:42:49;16.40;;;6.40;;
62037;SDS011;47991;42.974;12.082;2024-02-23T09:45:26;17.90;;;7.20;;
62037;SDS011;47991;42.974;12.082;2024-02-23T09:50:22;16.50;;;6.70;;
62037;SDS011;47991;42.974;12.082;2024-02-23T09:52:50;15.40;;;6.40;;
62037;SDS011;47991;42.974;12.082;2024-02-23T09:55:17;17.00;;;6.10;;
62037;SDS011;47991;42.974;12.082;2024-02-23T09:57:47;15.90;;;6.10;;
62037;SDS011;47991;42.974;12.082;2024-02-23T10:00:18;15.90;;;6.60;;
62037;SDS011;47991;42.974;12.082;2024-02-23T10:02:45;23.20;;;9.60;;
62037;SDS011;47991;42.974;12.082;2024-02-23T10:05:12;26.80;;;10.90;;
62037;SDS011;47991;42.974;12.082;2024-02-23T10:07:40;28.20;;;11.20;;
62037;SDS011;47991;42.974;12.082;2024-02-23T10:10:08;20.50;;;7.90;;
62037;SDS011;47991;42.974;12.082;2024-02-23T10:12:37;19.30;;;7.50;;
62037;SDS011;47991;42.974;12.082;2024-02-23T10:15:04;19.80;;;8.10;;
62037;SDS011;47991;42.974;12.082;2024-02-23T10:17:32;21.90;;;8.60;;
62037;SDS011;47991;42.974;12.082;2024-02-23T10:19:59;18.00;;;6.80;;
62037;SDS011;47991;42.974;12.082;2024-02-23T10:22:31;19.50;;;6.70;;
62037;SDS011;47991;42.974;12.082;2024-02-23T10:24:59;28.50;;;6.20;;
62037;SDS011;47991;42.974;12.082;2024-02-23T10:27:26;17.50;;;6.40;;
62037;SDS011;47991;42.974;12.082;2024-02-23T10:29:53;15.30;;;6.10;;
62037;SDS011;47991;42.974;12.082;2024-02-23T10:32:20;18.50;;;6.00;;
62037;SDS011;47991;42.974;12.082;2024-02-23T10:34:50;12.40;;;4.60;;
62037;SDS011;47991;42.974;12.082;2024-02-23T10:37:22;16.10;;;6.30;;
62037;SDS011;47991;42.974;12.082;2024-02-23T10:39:50;17.70;;;6.80;;
62037;SDS011;47991;42.974;12.082;2024-02-23T10:42:24;20.60;;;6.90;;
62037;SDS011;47991;42.974;12.082;2024-02-23T10:44:57;15.80;;;6.20;;
62037;SDS011;47991;42.974;12.082;2024-02-23T10:47:28;21.40;;;6.70;;
62037;SDS011;47991;42.974;12.082;2024-02-23T10:49:58;19.60;;;6.50;;
62037;SDS011;47991;42.974;12.082;2024-02-23T10:52:28;14.90;;;5.40;;
62037;SDS011;47991;42.974;12.082;2024-02-23T10:54:55;17.80;;;6.40;;
62037;SDS011;47991;42.974;12.082;2024-02-23T10:57:24;16.00;;;6.30;;
62037;SDS011;47991;42.974;12.082;2024-02-23T10:59:51;15.50;;;5.20;;
62037;SDS011;47991;42.974;12.082;2024-02-23T11:02:19;18.10;;;6.20;;
62037;SDS011;47991;42.974;12.082;2024-02-23T11:04:49;14.80;;;6.20;;
62037;SDS011;47991;42.974;12.082;2024-02-23T11:07:20;20.80;;;6.50;;
62037;SDS011;47991;42.974;12.082;2024-02-23T11:09:54;16.80;;;6.20;;
62037;SDS011;47991;42.974;12.082;2024-02-23T11:12:25;16.80;;;6.40;;
62037;SDS011;47991;42.974;12.082;2024-02-23T11:15:01;19.70;;;6.90;;
62037;SDS011;47991;42.974;12.082;2024-02-23T11:17:30;18.30;;;6.30;;
62037;SDS011;47991;42.974;12.082;2024-02-23T11:20:02;20.90;;;6.60;;
62037;SDS011;47991;42.974;12.082;2024-02-23T11:22:31;17.30;;;6.40;;
62037;SDS011;47991;42.974;12.082;2024-02-23T11:25:05;19.90;;;7.10;;
62037;SDS011;47991;42.974;12.082;2024-02-23T11:27:40;17.30;;;6.20;;
62037;SDS011;47991;42.974;12.082;2024-02-23T11:30:09;18.20;;;6.70;;
62037;SDS011;47991;42.974;12.082;2024-02-23T11:32:38;20.50;;;6.20;;
62037;SDS011;47991;42.974;12.082;2024-02-23T11:35:07;18.30;;;6.10;;
62037;SDS011;47991;42.974;12.082;2024-02-23T11:37:45;20.90;;;7.00;;
62037;SDS011;47991;42.974;12.082;2024-02-23T11:40:27;23.50;;;5.80;;
62037;SDS011;47991;42.974;12.082;2024-02-23T11:42:55;19.00;;;6.80;;
62037;SDS011;47991;42.974;12.082;2024-02-23T11:45:25;15.30;;;5.80;;
62037;SDS011;47991;42.974;12.082;2024-02-23T11:47:55;13.20;;;4.80;;
62037;SDS011;47991;42.974;12.082;2024-02-23T11:50:22;18.10;;;4.80;;
62037;SDS011;47991;42.974;12.082;2024-02-23T11:52:49;19.50;;;5.20;;
62037;SDS011;47991;42.974;12.082;2024-02-23T11:55:18;14.60;;;5.70;;
62037;SDS011;47991;42.974;12.082;2024-02-23T11:57:49;18.50;;;5.90;;
62037;SDS011;47991;42.974;12.082;2024-02-23T12:00:17;17.90;;;6.20;;
62037;SDS011;47991;42.974;12.082;2024-02-23T12:02:45;21.00;;;6.60;;
62037;SDS011;47991;42.974;12.082;2024-02-23T12:05:17;20.90;;;6.00;;
62037;SDS011;47991;42.974;12.082;2024-02-23T12:07:44;18.40;;;5.40;;
62037;SDS011;47991;42.974;12.082;2024-02-23T12:10:12;12.80;;;4.80;;
62037;SDS011;47991;42.974;12.082;2024-02-23T12:12:40;20.80;;;6.10;;
62037;SDS011;47991;42.974;12.082;2024-02-23T12:15:07;19.90;;;6.20;;
62037;SDS011;47991;42.974;12.082;2024-02-23T12:17:37;20.00;;;5.70;;
62037;SDS011;47991;42.974;12.082;2024-02-23T12:20:04;15.80;;;5.30;;
62037;SDS011;47991;42.974;12.082;2024-02-23T12:22:34;15.60;;;5.80;;
62037;SDS011;47991;42.974;12.082;2024-02-23T12:25:01;22.60;;;6.70;;
62037;SDS011;47991;42.974;12.082;2024-02-23T12:27:29;18.00;;;6.00;;
62037;SDS011;47991;42.974;12.082;2024-02-23T12:29:56;15.90;;;5.80;;
62037;SDS011;47991;42.974;12.082;2024-02-23T12:32:23;25.20;;;7.40;;
62037;SDS011;47991;42.974;12.082;2024-02-23T12:34:52;20.80;;;5.90;;
62037;SDS011;47991;42.974;12.082;2024-02-23T12:37:19;18.50;;;5.60;;
62037;SDS011;47991;42.974;12.082;2024-02-23T12:39:49;15.40;;;4.70;;
62037;SDS011;47991;42.974;12.082;2024-02-23T12:42:17;17.70;;;5.70;;
62037;SDS011;47991;42.974;12.082;2024-02-23T12:44:45;18.60;;;6.50;;
62037;SDS011;47991;42.974;12.082;2024-02-23T12:47:14;22.10;;;6.20;;
62037;SDS011;47991;42.974;12.082;2024-02-23T12:49:41;18.10;;;5.80;;
62037;SDS011;47991;42.974;12.082;2024-02-23T12:52:08;20.80;;;6.30;;
62037;SDS011;47991;42.974;12.082;2024-02-23T12:54:35;22.60;;;6.20;;
62037;SDS011;47991;42.974;12.082;2024-02-23T12:57:02;19.50;;;6.00;;
62037;SDS011;47991;42.974;12.082;2024-02-23T12:59:30;22.60;;;6.50;;
62037;SDS011;47991;42.974;12.082;2024-02-23T13:01:56;15.80;;;5.80;;
62037;SDS011;47991;42.974;12.082;2024-02-23T13:04:24;21.10;;;5.50;;
62037;SDS011;47991;42.974;12.082;2024-02-23T13:06:51;16.50;;;5.50;;
62037;SDS011;47991;42.974;12.082;2024-02-23T13:09:20;18.50;;;5.80;;
62037;SDS011;47991;42.974;12.082;2024-02-23T13:11:47;16.90;;;5.90;;
62037;SDS011;47991;42.974;12.082;2024-02-23T13:14:15;19.00;;;5.30;;
62037;SDS011;47991;42.974;12.082;2024-02-23T13:16:42;22.20;;;6.40;;
62037;SDS011;47991;42.974;12.082;2024-02-23T13:19:09;18.00;;;5.20;;
62037;SDS011;47991;42.974;12.082;2024-02-23T13:21:36;18.40;;;6.10;;
62037;SDS011;47991;42.974;12.082;2024-02-23T13:24:03;20.60;;;6.00;;
62037;SDS011;47991;42.974;12.082;2024-02-23T13:26:32;20.50;;;5.70;;
62037;SDS011;47991;42.974;12.082;2024-02-23T13:29:00;22.80;;;6.10;;
62037;SDS011;47991;42.974;12.082;2024-02-23T13:31:27;18.90;;;6.70;;
62037;SDS011;47991;42.974;12.082;2024-02-23T13:33:56;16.90;;;5.70;;
62037;SDS011;47991;42.974;12.082;2024-02-23T13:36:23;22.60;;;6.30;;
62037;SDS011;47991;42.974;12.082;2024-02-23T13:38:49;18.40;;;6.20;;
62037;SDS011;47991;42.974;12.082;2024-02-23T13:41:17;23.10;;;5.70;;
62037;SDS011;47991;42.974;12.082;2024-02-23T13:43:44;20.30;;;6.10;;
62037;SDS011;47991;42.974;12.082;2024-02-23T13:46:12;24.10;;;6.70;;
62037;SDS011;47991;42.974;12.082;2024-02-23T13:48:39;20.30;;;5.20;;
62037;SDS011;47991;42.974;12.082;2024-02-23T13:51:06;16.00;;;5.60;;
62037;SDS011;47991;42.974;12.082;2024-02-23T13:53:33;26.50;;;6.40;;
62037;SDS011;47991;42.974;12.082;2024-02-23T13:56:02;19.00;;;5.80;;
62037;SDS011;47991;42.974;12.082;2024-02-23T13:58:30;16.50;;;5.50;;
62037;SDS011;47991;42.974;12.082;2024-02-23T14:00:57;25.30;;;6.90;;
62037;SDS011;47991;42.974;12.082;2024-02-23T14:03:24;18.40;;;5.80;;
62037;SDS011;47991;42.974;12.082;2024-02-23T14:05:52;19.90;;;6.30;;
62037;SDS011;47991;42.974;12.082;2024-02-23T14:08:19;20.80;;;6.70;;
62037;SDS011;47991;42.974;12.082;2024-02-23T14:10:47;22.10;;;5.80;;
62037;SDS011;47991;42.974;12.082;2024-02-23T14:13:14;19.70;;;6.30;;
62037;SDS011;47991;42.974;12.082;2024-02-23T14:15:41;23.50;;;6.50;;
62037;SDS011;47991;42.974;12.082;2024-02-23T14:18:08;21.60;;;6.30;;
62037;SDS011;47991;42.974;12.082;2024-02-23T14:20:36;19.20;;;5.50;;
62037;SDS011;47991;42.974;12.082;2024-02-23T14:23:03;19.70;;;5.50;;
62037;SDS011;47991;42.974;12.082;2024-02-23T14:25:29;22.10;;;5.80;;
62037;SDS011;47991;42.974;12.082;2024-02-23T14:27:57;16.40;;;5.50;;
62037;SDS011;47991;42.974;12.082;2024-02-23T14:30:24;18.10;;;6.00;;
62037;SDS011;47991;42.974;12.082;2024-02-23T14:32:51;21.00;;;6.10;;
62037;SDS011;47991;42.974;12.082;2024-02-23T14:35:18;16.10;;;5.50;;
62037;SDS011;47991;42.974;12.082;2024-02-23T14:37:46;16.80;;;6.00;;
62037;SDS011;47991;42.974;12.082;2024-02-23T14:40:13;22.70;;;6.20;;
62037;SDS011;47991;42.974;12.082;2024-02-23T14:42:41;16.60;;;5.40;;